createdAt,value
2022-09-26T00:00:31.656Z,100117.69
2022-09-26T00:01:37.230Z,100092.75
2022-09-26T00:02:39.148Z,100090.66
2022-09-26T00:03:47.685Z,100118.75
2022-09-26T00:04:50.259Z,100092.94
2022-09-26T00:05:52.083Z,100052.56
2022-09-26T00:06:56.775Z,100114.16
2022-09-26T00:07:58.620Z,100094.59
2022-09-26T00:09:00.438Z,100099.41
2022-09-26T00:10:02.393Z,100105.84
2022-09-26T00:11:07.543Z,100113.75
2022-09-26T00:12:09.289Z,100090.03
2022-09-26T00:13:11.008Z,100092.13
2022-09-26T00:14:17.041Z,100105.63
2022-09-26T00:15:19.003Z,100063.00
2022-09-26T00:16:21.902Z,100010.38
2022-09-26T00:17:23.667Z,100062.34
2022-09-26T00:18:26.286Z,100066.91
2022-09-26T00:19:28.101Z,100039.66
2022-09-26T00:20:29.849Z,100060.06
2022-09-26T00:21:32.211Z,100081.09
2022-09-26T00:22:33.990Z,100050.06
2022-09-26T00:23:36.341Z,100055.88
2022-09-26T00:24:38.181Z,100085.06
2022-09-26T00:25:51.426Z,100019.50
2022-09-26T00:26:53.311Z,100009.91
2022-09-26T00:27:55.019Z,100085.66
2022-09-26T00:29:00.804Z,100101.69
2022-09-26T00:30:02.619Z,100055.03
2022-09-26T00:31:09.748Z,100094.59
2022-09-26T00:32:11.548Z,100058.59
2022-09-26T00:33:14.086Z,100071.31
2022-09-26T00:34:18.306Z,100034.66
2022-09-26T00:35:20.088Z,99938.81
2022-09-26T00:36:26.872Z,99984.78
2022-09-26T00:37:38.595Z,100060.69
2022-09-26T00:38:40.623Z,100082.72
2022-09-26T00:39:42.464Z,100013.47
2022-09-26T00:40:44.630Z,100078.78
2022-09-26T00:41:46.612Z,100035.28
2022-09-26T00:42:48.396Z,99935.69
2022-09-26T00:43:53.018Z,100068.81
2022-09-26T00:44:54.838Z,100016.16
2022-09-26T00:46:03.260Z,100073.38
2022-09-26T00:47:14.555Z,100029.03
2022-09-26T00:48:18.522Z,100035.94
2022-09-26T00:49:28.746Z,100069.44
2022-09-26T00:50:36.793Z,100038.00
2022-09-26T00:51:42.374Z,100035.72
2022-09-26T00:53:02.889Z,100050.91
2022-09-26T00:54:06.664Z,100062.13
2022-09-26T00:55:11.614Z,99953.56
2022-09-26T00:56:22.517Z,99996.41
2022-09-26T00:57:33.564Z,100041.97
2022-09-26T00:58:45.681Z,100068.38
2022-09-26T00:59:54.236Z,100066.50
2022-09-26T01:00:57.708Z,100066.91
2022-09-26T01:02:00.172Z,100027.38
2022-09-26T01:03:02.273Z,100045.88
2022-09-26T01:04:06.137Z,100022.19
2022-09-26T01:05:10.585Z,100066.72
2022-09-26T01:06:12.794Z,100028.41
2022-09-26T01:07:21.563Z,100029.47
2022-09-26T01:08:32.154Z,100029.25
2022-09-26T01:09:34.085Z,100066.09
2022-09-26T01:10:36.659Z,100052.56
2022-09-26T01:11:41.547Z,100044.47
2022-09-26T01:12:43.967Z,100020.53
2022-09-26T01:13:46.573Z,100041.13
2022-09-26T01:14:52.359Z,100063.59
2022-09-26T01:15:56.587Z,100067.78
2022-09-26T01:16:58.457Z,100017.19
2022-09-26T01:18:00.516Z,100028.22
2022-09-26T01:19:06.664Z,100064.44
2022-09-26T01:20:23.406Z,100063.41
2022-09-26T01:22:07.631Z,100031.75
2022-09-26T01:23:33.675Z,100063.38
2022-09-26T01:24:41.250Z,100060.03
2022-09-26T01:26:01.102Z,100067.34
2022-09-26T01:27:34.879Z,100067.13
2022-09-26T01:28:57.618Z,100058.56
2022-09-26T01:30:08.752Z,100060.03
2022-09-26T01:31:34.864Z,100060.47
2022-09-26T01:32:58.367Z,100060.47
2022-09-26T01:34:09.446Z,100039.66
2022-09-26T01:35:49.174Z,100058.38
2022-09-26T01:37:34.243Z,100053.38
2022-09-26T01:38:49.751Z,100054.63
2022-09-26T01:40:04.437Z,100052.97
2022-09-26T01:41:24.649Z,100053.63
2022-09-26T01:42:36.385Z,100033.63
2022-09-26T01:43:52.534Z,100050.25
2022-09-26T01:45:01.266Z,100044.03
2022-09-26T01:46:13.697Z,100007.19
2022-09-26T01:47:28.419Z,100023.84
2022-09-26T01:48:50.763Z,100018.03
2022-09-26T01:50:06.513Z,100036.72
2022-09-26T01:51:30.192Z,100043.00
2022-09-26T01:52:39.549Z,100001.38
2022-09-26T01:53:41.567Z,100038.81
2022-09-26T01:54:51.111Z,100033.00
2022-09-26T01:56:03.262Z,100011.56
2022-09-26T01:57:10.877Z,100005.13
2022-09-26T01:58:59.281Z,100045.69
2022-09-26T02:00:05.928Z,100007.63
2022-09-26T02:01:20.264Z,100020.53
2022-09-26T02:02:27.098Z,100040.72
2022-09-26T02:03:36.674Z,99996.38
2022-09-26T02:04:42.970Z,99986.63
2022-09-26T02:05:48.180Z,99990.16
2022-09-26T02:06:57.948Z,100020.72
2022-09-26T02:08:15.314Z,100030.13
2022-09-26T02:09:28.406Z,100017.59
2022-09-26T02:10:40.889Z,100033.81
2022-09-26T02:11:49.304Z,100022.41
2022-09-26T02:12:59.652Z,100023.44
2022-09-26T02:14:07.257Z,99897.66
2022-09-26T02:15:17.400Z,100008.84
2022-09-26T02:16:46.841Z,100031.31
2022-09-26T02:18:06.036Z,100008.44
2022-09-26T02:19:17.862Z,100031.31
2022-09-26T02:20:27.000Z,100003.03
2022-09-26T02:21:28.953Z,99918.66
2022-09-26T02:22:34.326Z,100012.59
2022-09-26T02:23:36.132Z,99988.91
2022-09-26T02:24:38.161Z,100001.78
2022-09-26T02:25:40.256Z,100020.91
2022-09-26T02:26:45.370Z,100013.44
2022-09-26T02:27:48.368Z,99994.94
2022-09-26T02:28:50.372Z,99986.63
2022-09-26T02:29:53.822Z,100019.69
2022-09-26T02:31:01.256Z,100007.19
2022-09-26T02:32:32.318Z,100018.00
2022-09-26T02:33:35.455Z,100018.44
2022-09-26T02:34:37.298Z,99987.22
2022-09-26T02:35:54.298Z,100000.31
2022-09-26T02:36:57.783Z,100009.72
2022-09-26T02:38:05.799Z,100021.56
2022-09-26T02:39:11.643Z,99922.00
2022-09-26T02:40:36.873Z,100013.84
2022-09-26T02:41:52.750Z,99990.97
2022-09-26T02:43:27.883Z,99991.38
2022-09-26T02:45:25.945Z,99995.31
2022-09-26T02:46:46.529Z,100012.97
2022-09-26T02:47:59.963Z,100018.00
2022-09-26T02:49:28.705Z,99941.50
2022-09-26T02:50:39.508Z,100008.84
2022-09-26T02:51:49.891Z,100006.56
2022-09-26T02:53:19.745Z,100019.06
2022-09-26T02:54:44.983Z,99992.66
2022-09-26T02:56:07.624Z,100021.34
2022-09-26T02:57:23.048Z,99988.06
2022-09-26T02:58:46.004Z,99974.75
2022-09-26T03:00:14.042Z,100018.63
2022-09-26T03:01:42.281Z,99968.47
2022-09-26T03:03:05.936Z,99983.88
2022-09-26T03:04:29.209Z,100003.44
2022-09-26T03:05:34.915Z,99987.63
2022-09-26T03:06:43.199Z,99977.25
2022-09-26T03:07:51.174Z,99959.78
2022-09-26T03:08:56.770Z,99988.06
2022-09-26T03:10:03.776Z,100008.88
2022-09-26T03:11:10.914Z,99981.19
2022-09-26T03:12:14.064Z,99985.56
2022-09-26T03:13:18.528Z,99844.47
2022-09-26T03:14:21.461Z,99990.34
2022-09-26T03:15:24.681Z,99995.13
2022-09-26T03:16:32.158Z,99887.88
2022-09-26T03:17:36.998Z,99983.50
2022-09-26T03:18:45.843Z,99987.84
2022-09-26T03:19:55.352Z,99973.91
2022-09-26T03:20:57.264Z,99868.75
2022-09-26T03:22:00.125Z,99875.41
2022-09-26T03:23:04.284Z,99928.63
2022-09-26T03:24:07.730Z,99967.69
2022-09-26T03:25:13.833Z,99999.50
2022-09-26T03:26:25.979Z,99964.75
2022-09-26T03:27:32.157Z,99992.19
2022-09-26T03:28:37.642Z,99988.88
2022-09-26T03:29:39.888Z,99943.59
2022-09-26T03:30:45.787Z,99869.56
2022-09-26T03:32:10.458Z,99989.91
2022-09-26T03:33:12.803Z,99985.56
2022-09-26T03:34:15.447Z,99943.16
2022-09-26T03:35:17.261Z,99981.63
2022-09-26T03:36:21.562Z,99996.81
2022-09-26T03:37:23.310Z,99988.47
2022-09-26T03:38:26.414Z,99996.19
2022-09-26T03:39:51.383Z,99959.78
2022-09-26T03:41:00.106Z,99933.81
2022-09-26T03:42:27.593Z,99966.19
2022-09-26T03:43:31.489Z,99916.34
2022-09-26T03:44:33.409Z,99988.25
2022-09-26T03:45:47.356Z,99967.47
2022-09-26T03:46:54.955Z,99953.94
2022-09-26T03:47:57.633Z,99985.97
2022-09-26T03:49:00.195Z,99958.13
2022-09-26T03:50:01.974Z,99956.47
2022-09-26T03:51:09.384Z,99966.66
2022-09-26T03:52:12.342Z,99904.91
2022-09-26T03:53:14.968Z,99965.63
2022-09-26T03:54:16.739Z,99990.78
2022-09-26T03:55:18.655Z,99941.88
2022-09-26T03:56:21.142Z,99984.72
2022-09-26T03:57:23.125Z,99950.22
2022-09-26T03:58:34.856Z,99980.56
2022-09-26T03:59:36.829Z,99936.47
2022-09-26T04:00:39.861Z,99977.88
2022-09-26T04:01:42.670Z,99862.50
2022-09-26T04:02:44.845Z,99957.69
2022-09-26T04:04:02.865Z,99957.66
2022-09-26T04:05:05.019Z,99974.31
2022-09-26T04:06:09.152Z,99961.00
2022-09-26T04:07:10.935Z,99902.22
2022-09-26T04:08:13.304Z,99946.88
2022-09-26T04:09:17.790Z,99931.91
2022-09-26T04:10:25.495Z,99920.91
2022-09-26T04:11:27.235Z,99967.25
2022-09-26T04:12:30.885Z,99879.34
2022-09-26T04:13:50.689Z,99953.53
2022-09-26T04:14:54.639Z,99926.28
2022-09-26T04:15:57.880Z,99954.56
2022-09-26T04:17:00.666Z,99939.38
2022-09-26T04:18:14.961Z,99943.13
2022-09-26T04:19:16.713Z,99929.41
2022-09-26T04:20:18.582Z,99929.03
2022-09-26T04:21:21.582Z,99835.53
2022-09-26T04:22:23.480Z,99819.13
2022-09-26T04:23:28.542Z,99879.53
2022-09-26T04:24:30.884Z,99921.91
2022-09-26T04:25:37.083Z,99959.75
2022-09-26T04:26:41.266Z,99933.34
2022-09-26T04:27:43.028Z,99950.19
2022-09-26T04:28:45.951Z,99917.97
2022-09-26T04:29:47.732Z,99828.47
2022-09-26T04:31:02.229Z,99912.81
2022-09-26T04:32:05.154Z,99942.69
2022-09-26T04:33:17.980Z,99933.34
2022-09-26T04:34:27.479Z,99920.28
2022-09-26T04:35:30.030Z,99926.09
2022-09-26T04:36:32.881Z,99951.63
2022-09-26T04:37:37.168Z,99931.06
2022-09-26T04:38:39.504Z,99914.03
2022-09-26T04:39:43.877Z,99946.03
2022-09-26T04:40:45.772Z,99916.94
2022-09-26T04:41:47.738Z,99941.88
2022-09-26T04:42:49.794Z,99945.22
2022-09-26T04:43:53.785Z,99957.47
2022-09-26T04:44:56.229Z,99911.13
2022-09-26T04:45:58.821Z,99944.78
2022-09-26T04:47:02.972Z,99938.75
2022-09-26T04:48:23.930Z,99915.06
2022-09-26T04:49:32.192Z,99892.22
2022-09-26T04:50:34.101Z,99927.31
2022-09-26T04:51:46.275Z,99936.47
2022-09-26T04:52:48.400Z,99899.69
2022-09-26T04:53:50.622Z,99897.84
2022-09-26T04:54:55.862Z,99798.13
2022-09-26T04:55:58.902Z,99947.25
2022-09-26T04:57:01.074Z,99877.06
2022-09-26T04:58:02.882Z,99814.31
2022-09-26T04:59:05.746Z,99931.50
2022-09-26T05:00:23.473Z,99927.13
2022-09-26T05:01:27.496Z,99836.09
2022-09-26T05:02:43.770Z,99880.59
2022-09-26T05:03:45.979Z,99855.88
2022-09-26T05:04:48.535Z,99880.38
2022-09-26T05:05:52.220Z,99932.31
2022-09-26T05:06:56.892Z,99937.91
2022-09-26T05:08:03.266Z,99923.56
2022-09-26T05:09:06.103Z,99897.00
2022-09-26T05:10:19.948Z,99902.38
2022-09-26T05:11:29.326Z,99914.03
2022-09-26T05:12:33.161Z,99931.44
2022-09-26T05:13:36.623Z,99932.72
2022-09-26T05:14:41.972Z,99935.19
2022-09-26T05:15:43.711Z,99926.03
2022-09-26T05:16:47.242Z,99918.78
2022-09-26T05:18:00.162Z,99885.34
2022-09-26T05:19:04.718Z,99923.97
2022-09-26T05:20:10.049Z,99920.44
2022-09-26T05:21:23.711Z,99905.63
2022-09-26T05:22:25.587Z,99881.16
2022-09-26T05:23:46.987Z,99907.72
2022-09-26T05:25:07.427Z,99918.13
2022-09-26T05:26:40.817Z,99933.44
2022-09-26T05:27:43.124Z,99908.09
2022-09-26T05:28:45.418Z,99851.59
2022-09-26T05:29:47.527Z,99842.50
2022-09-26T05:30:51.412Z,99945.69
2022-09-26T05:31:54.885Z,99829.97
2022-09-26T05:32:58.401Z,99907.41
2022-09-26T05:34:00.142Z,99928.59
2022-09-26T05:35:05.283Z,99916.94
2022-09-26T05:36:09.263Z,99832.84
2022-09-26T05:37:11.023Z,99757.28
2022-09-26T05:38:12.853Z,99916.94
2022-09-26T05:39:38.925Z,99896.75
2022-09-26T05:40:59.259Z,99944.03
2022-09-26T05:42:05.830Z,99896.22
2022-09-26T05:43:08.256Z,99900.78
2022-09-26T05:44:10.696Z,99921.56
2022-09-26T05:45:15.754Z,99880.22
2022-09-26T05:46:18.502Z,99922.34
2022-09-26T05:47:27.153Z,99925.47
2022-09-26T05:48:32.325Z,99910.47
2022-09-26T05:49:36.087Z,99913.81
2022-09-26T05:50:41.645Z,99916.91
2022-09-26T05:51:45.877Z,99797.75
2022-09-26T05:52:51.423Z,99869.91
2022-09-26T05:53:58.673Z,99875.69
2022-09-26T05:55:02.303Z,99877.78
2022-09-26T05:56:23.639Z,99904.53
2022-09-26T05:57:57.505Z,99871.09
2022-09-26T05:59:05.239Z,99903.22
2022-09-26T06:00:10.423Z,99927.28
2022-09-26T06:01:21.308Z,99921.28
2022-09-26T06:02:31.110Z,99908.03
2022-09-26T06:03:47.579Z,99929.53
2022-09-26T06:04:58.494Z,99942.66
2022-09-26T06:06:14.796Z,99933.47
2022-09-26T06:07:16.864Z,99915.00
2022-09-26T06:08:18.736Z,99834.28
2022-09-26T06:09:25.335Z,99769.56
2022-09-26T06:10:45.400Z,99932.22
2022-09-26T06:11:47.257Z,99892.97
2022-09-26T06:12:51.181Z,99888.00
2022-09-26T06:13:53.552Z,99885.28
2022-09-26T06:14:55.265Z,99911.22
2022-09-26T06:16:01.593Z,99916.03
2022-09-26T06:17:03.459Z,99900.81
2022-09-26T06:18:05.322Z,99902.88
2022-09-26T06:19:07.114Z,99764.31
2022-09-26T06:20:10.764Z,99906.25
2022-09-26T06:21:14.967Z,99915.09
2022-09-26T06:22:16.788Z,99896.25
2022-09-26T06:23:18.541Z,99887.56
2022-09-26T06:24:21.392Z,99912.44
2022-09-26T06:25:26.858Z,99916.41
2022-09-26T06:26:29.138Z,99923.47
2022-09-26T06:27:32.782Z,99894.19
2022-09-26T06:28:39.009Z,99846.91
2022-09-26T06:29:41.111Z,99868.41
2022-09-26T06:30:43.029Z,99890.44
2022-09-26T06:31:47.638Z,99785.47
2022-09-26T06:32:52.499Z,99915.50
2022-09-26T06:34:13.251Z,99903.22
2022-09-26T06:35:30.556Z,99882.47
2022-09-26T06:36:59.644Z,99888.88
2022-09-26T06:38:05.182Z,99888.28
2022-09-26T06:39:06.972Z,99906.38
2022-09-26T06:40:11.686Z,99908.19
2022-09-26T06:41:15.124Z,99907.78
2022-09-26T06:42:16.811Z,99853.22
2022-09-26T06:43:31.480Z,99899.06
2022-09-26T06:44:52.000Z,99821.72
2022-09-26T06:46:09.588Z,99885.34
2022-09-26T06:47:30.218Z,99861.66
2022-09-26T06:48:58.313Z,99909.97
2022-09-26T06:50:23.410Z,99896.28
2022-09-26T06:51:32.106Z,99880.72
2022-09-26T06:52:36.748Z,99907.94
2022-09-26T06:53:38.990Z,99878.69
2022-09-26T06:54:41.655Z,99867.09
2022-09-26T06:55:44.025Z,99889.94
2022-09-26T06:56:45.827Z,99867.09
2022-09-26T06:57:47.646Z,99894.44
2022-09-26T06:58:49.894Z,99768.38
2022-09-26T06:59:54.826Z,99864.38
2022-09-26T07:01:06.835Z,99904.25
2022-09-26T07:02:27.133Z,99902.34
2022-09-26T07:03:55.127Z,99886.72
2022-09-26T07:05:14.609Z,99864.69
2022-09-26T07:06:25.861Z,99895.25
2022-09-26T07:07:30.368Z,99912.53
2022-09-26T07:09:00.451Z,99867.84
2022-09-26T07:09:59.027Z,99881.75
2022-09-26T07:11:35.049Z,99898.38
2022-09-26T07:12:40.382Z,99857.84
2022-09-26T07:13:42.115Z,99850.06
2022-09-26T07:14:43.951Z,99846.75
2022-09-26T07:15:58.897Z,99778.66
2022-09-26T07:17:15.884Z,99857.75
2022-09-26T07:18:39.780Z,99903.72
2022-09-26T07:19:54.755Z,99840.06
2022-09-26T07:21:16.828Z,99865.75
2022-09-26T07:22:21.443Z,99859.81
2022-09-26T07:23:26.422Z,99875.53
2022-09-26T07:24:28.238Z,99849.63
2022-09-26T07:25:31.960Z,99863.94
2022-09-26T07:26:35.328Z,99865.38
2022-09-26T07:27:40.083Z,99911.56
2022-09-26T07:28:42.054Z,99796.16
2022-09-26T07:29:47.413Z,99887.00
2022-09-26T07:30:50.740Z,99872.22
2022-09-26T07:32:11.136Z,99858.22
2022-09-26T07:33:36.058Z,99889.63
2022-09-26T07:34:44.161Z,99856.41
2022-09-26T07:35:48.533Z,99816.38
2022-09-26T07:36:51.864Z,99865.75
2022-09-26T07:37:53.673Z,99795.13
2022-09-26T07:38:55.529Z,99883.22
2022-09-26T07:40:01.432Z,99884.47
2022-09-26T07:41:06.118Z,99892.75
2022-09-26T07:42:09.736Z,99779.06
2022-09-26T07:43:20.427Z,99800.47
2022-09-26T07:45:19.619Z,99877.38
2022-09-26T07:46:09.580Z,99864.69
2022-09-26T07:47:30.607Z,99871.97
2022-09-26T07:48:51.629Z,99890.25
2022-09-26T07:50:23.008Z,99891.00
2022-09-26T07:51:56.410Z,99857.41
2022-09-26T07:53:04.339Z,99884.22
2022-09-26T07:54:26.340Z,99889.84
2022-09-26T07:56:05.835Z,99898.13
2022-09-26T07:57:26.095Z,99892.94
2022-09-26T07:59:05.389Z,99900.34
2022-09-26T08:00:31.562Z,99895.56
2022-09-26T08:01:58.098Z,99869.00
2022-09-26T08:03:14.101Z,99873.22
2022-09-26T08:04:18.740Z,99902.75
2022-09-26T08:05:20.956Z,99799.50
2022-09-26T08:06:25.731Z,99869.63
2022-09-26T08:07:27.534Z,99912.41
2022-09-26T08:08:48.309Z,99891.81
2022-09-26T08:10:15.646Z,99906.13
2022-09-26T08:11:42.003Z,99868.91
2022-09-26T08:13:03.969Z,99868.75
2022-09-26T08:14:19.868Z,99910.28
2022-09-26T08:15:40.380Z,99926.03
2022-09-26T08:16:44.911Z,99906.97
2022-09-26T08:17:47.668Z,99903.59
2022-09-26T08:18:51.462Z,99825.22
2022-09-26T08:19:53.468Z,99895.75
2022-09-26T08:20:55.228Z,99884.56
2022-09-26T08:21:59.104Z,99918.16
2022-09-26T08:23:01.028Z,99738.13
2022-09-26T08:24:04.113Z,99909.47
2022-09-26T08:25:09.272Z,99880.00
2022-09-26T08:26:29.489Z,99897.78
2022-09-26T08:27:37.830Z,99913.16
2022-09-26T08:28:40.357Z,99893.66
2022-09-26T08:29:42.469Z,99873.72
2022-09-26T08:30:45.056Z,99867.34
2022-09-26T08:31:47.775Z,99774.56
2022-09-26T08:33:02.236Z,99864.63
2022-09-26T08:34:07.967Z,99911.50
2022-09-26T08:35:15.055Z,99880.81
2022-09-26T08:36:54.937Z,99912.28
2022-09-26T08:38:09.212Z,99904.84
2022-09-26T08:39:13.889Z,99842.22
2022-09-26T08:40:51.484Z,99892.81
2022-09-26T08:42:11.970Z,99918.28
2022-09-26T08:43:56.515Z,99917.81
2022-09-26T08:46:00.126Z,99934.69
2022-09-26T08:47:43.817Z,99927.16
2022-09-26T08:49:24.945Z,99926.56
2022-09-26T08:50:39.128Z,99924.31
2022-09-26T08:51:46.323Z,99866.47
2022-09-26T08:53:05.607Z,99920.69
2022-09-26T08:54:17.165Z,99916.50
2022-09-26T08:55:26.940Z,99938.16
2022-09-26T08:56:44.583Z,99928.66
2022-09-26T08:58:01.540Z,99936.03
2022-09-26T08:59:07.094Z,99924.03
2022-09-26T09:00:21.620Z,99930.91
2022-09-26T09:01:43.374Z,99877.56
2022-09-26T09:03:53.371Z,99930.94
2022-09-26T09:05:04.047Z,99908.63
2022-09-26T09:06:13.684Z,99896.41
2022-09-26T09:07:22.887Z,99897.84
2022-09-26T09:08:34.843Z,99905.56
2022-09-26T09:09:45.936Z,99927.81
2022-09-26T09:11:09.095Z,99928.34
2022-09-26T09:12:24.267Z,99936.94
2022-09-26T09:14:02.246Z,99934.78
2022-09-26T09:15:55.361Z,99897.34
2022-09-26T09:17:27.622Z,99936.81
2022-09-26T09:18:59.286Z,99907.31
2022-09-26T09:20:55.001Z,99887.84
2022-09-26T09:22:37.735Z,99936.38
2022-09-26T09:24:01.900Z,99937.06
2022-09-26T09:25:39.816Z,99930.94
2022-09-26T09:29:10.382Z,99927.56
2022-09-26T09:30:36.382Z,99922.81
2022-09-26T09:31:59.694Z,99898.97
2022-09-26T09:33:25.037Z,99885.53
2022-09-26T09:34:51.537Z,99914.75
2022-09-26T09:36:21.436Z,99916.47
2022-09-26T09:37:48.207Z,99907.31
2022-09-26T09:39:06.104Z,99917.91
2022-09-26T09:40:28.146Z,99925.00
2022-09-26T09:41:51.036Z,99896.97
2022-09-26T09:43:06.444Z,99909.38
2022-09-26T09:44:30.518Z,99913.69
2022-09-26T09:45:46.075Z,99914.97
2022-09-26T09:46:50.958Z,99895.47
2022-09-26T09:47:52.942Z,99843.63
2022-09-26T09:49:10.048Z,99921.03
2022-09-26T09:50:30.440Z,99885.34
2022-09-26T09:51:52.724Z,99774.13
2022-09-26T09:53:22.357Z,99853.38
2022-09-26T09:54:36.063Z,99922.66
2022-09-26T09:56:05.987Z,99898.81
2022-09-26T09:57:16.871Z,99918.28
2022-09-26T09:58:27.109Z,99921.44
2022-09-26T09:59:46.906Z,99916.84
2022-09-26T10:01:02.875Z,99908.94
2022-09-26T10:02:38.045Z,99862.44
2022-09-26T10:03:55.388Z,99912.66
2022-09-26T10:05:18.898Z,99914.97
2022-09-26T10:06:46.580Z,99890.25
2022-09-26T10:07:47.732Z,99812.69
2022-09-26T10:09:38.964Z,99847.06
2022-09-26T10:11:22.528Z,99908.63
2022-09-26T10:12:51.414Z,99906.22
2022-09-26T10:14:16.778Z,99902.91
2022-09-26T10:15:21.687Z,99899.88
2022-09-26T10:17:27.975Z,99931.38
2022-09-26T10:18:56.370Z,99925.50
2022-09-26T10:20:00.230Z,99915.84
2022-09-26T10:21:17.923Z,99914.44
2022-09-26T10:22:44.864Z,99927.47
2022-09-26T10:23:56.315Z,99925.03
2022-09-26T10:25:26.398Z,99906.97
2022-09-26T10:26:35.104Z,99934.38
2022-09-26T10:27:40.294Z,99933.19
2022-09-26T10:28:48.331Z,99895.03
2022-09-26T10:30:03.157Z,99939.41
2022-09-26T10:31:10.523Z,99935.88
2022-09-26T10:32:55.415Z,99913.44
2022-09-26T10:34:28.140Z,99938.31
2022-09-26T10:35:46.635Z,99923.84
2022-09-26T10:36:51.248Z,99918.22
2022-09-26T10:37:55.702Z,99932.94
2022-09-26T10:39:18.806Z,99917.59
2022-09-26T10:40:45.498Z,99934.59
2022-09-26T10:41:49.163Z,99919.88
2022-09-26T10:42:51.884Z,99919.72
2022-09-26T10:43:56.226Z,99930.50
2022-09-26T10:45:27.188Z,99911.19
2022-09-26T10:47:08.692Z,99908.63
2022-09-26T10:48:48.934Z,99908.63
2022-09-26T10:50:27.881Z,99936.00
2022-09-26T10:52:23.999Z,99915.25
2022-09-26T10:53:27.502Z,99906.75
2022-09-26T10:54:41.895Z,99942.53
2022-09-26T10:56:00.483Z,99869.19
2022-09-26T10:57:09.529Z,99929.25
2022-09-26T10:58:22.807Z,99917.00
2022-09-26T10:59:31.568Z,99895.81
2022-09-26T11:00:33.431Z,99934.84
2022-09-26T11:01:43.244Z,99940.72
2022-09-26T11:02:49.352Z,99794.03
2022-09-26T11:03:51.587Z,99932.81
2022-09-26T11:05:17.544Z,99918.47
2022-09-26T11:06:45.964Z,99921.13
2022-09-26T11:08:03.220Z,99892.84
2022-09-26T11:09:20.893Z,99932.28
2022-09-26T11:10:47.394Z,99883.50
2022-09-26T11:12:40.058Z,99891.16
2022-09-26T11:13:48.250Z,99906.13
2022-09-26T11:15:05.612Z,99910.28
2022-09-26T11:16:14.060Z,99912.56
2022-09-26T11:17:19.306Z,99926.25
2022-09-26T11:18:31.119Z,99928.34
2022-09-26T11:19:39.512Z,99927.31
2022-09-26T11:20:51.328Z,99867.09
2022-09-26T11:22:27.305Z,99925.00
2022-09-26T11:23:41.949Z,99922.66
2022-09-26T11:24:46.732Z,99845.28
2022-09-26T11:26:00.122Z,99919.78
2022-09-26T11:27:05.676Z,99926.25
2022-09-26T11:28:37.152Z,99904.41
2022-09-26T11:30:11.003Z,99932.84
2022-09-26T11:31:21.625Z,99928.06
2022-09-26T11:32:41.235Z,99928.97
2022-09-26T11:34:03.964Z,99869.16
2022-09-26T11:35:34.398Z,99928.69
2022-09-26T11:36:50.608Z,99932.69
2022-09-26T11:38:05.321Z,99923.50
2022-09-26T11:39:25.966Z,99934.94
2022-09-26T11:40:37.987Z,99929.38
2022-09-26T11:41:45.812Z,99931.84
2022-09-26T11:43:06.515Z,99932.88
2022-09-26T11:44:29.236Z,99927.88
2022-09-26T11:46:27.445Z,99929.88
2022-09-26T11:48:17.214Z,99935.72
2022-09-26T11:50:45.531Z,99930.00
2022-09-26T11:52:22.913Z,99938.38
2022-09-26T11:53:34.331Z,99914.34
2022-09-26T11:54:53.628Z,99895.47
2022-09-26T11:56:16.028Z,99922.03
2022-09-26T11:57:34.589Z,99939.31
2022-09-26T11:58:52.176Z,99936.00
2022-09-26T11:59:58.080Z,99933.03
2022-09-26T12:01:21.457Z,99942.22
2022-09-26T12:02:33.253Z,99946.84
2022-09-26T12:03:51.776Z,99939.75
2022-09-26T12:05:22.435Z,99947.66
2022-09-26T12:06:34.996Z,99930.63
2022-09-26T12:07:43.726Z,99810.94
2022-09-26T12:09:13.036Z,99952.47
2022-09-26T12:10:42.815Z,99947.44
2022-09-26T12:12:15.338Z,99926.41
2022-09-26T12:13:35.313Z,99946.75
2022-09-26T12:14:55.241Z,99944.91
2022-09-26T12:16:10.048Z,99950.97
2022-09-26T12:17:23.164Z,99895.41
2022-09-26T12:18:39.509Z,99922.78
2022-09-26T12:19:46.191Z,99896.19
2022-09-26T12:21:09.497Z,99940.22
2022-09-26T12:22:28.632Z,99952.28
2022-09-26T12:23:36.468Z,99950.38
2022-09-26T12:25:16.547Z,99952.47
2022-09-26T12:26:34.971Z,99943.44
2022-09-26T12:27:44.336Z,99944.75
2022-09-26T12:28:48.702Z,99954.59
2022-09-26T12:29:55.911Z,99841.09
2022-09-26T12:31:19.691Z,99957.53
2022-09-26T12:32:47.153Z,99901.28
2022-09-26T12:34:16.608Z,99949.00
2022-09-26T12:35:20.986Z,99977.28
2022-09-26T12:36:47.776Z,99929.50
2022-09-26T12:38:16.016Z,99951.72
2022-09-26T12:39:49.275Z,99953.38
2022-09-26T12:41:15.756Z,99976.22
2022-09-26T12:42:25.547Z,99974.78
2022-09-26T12:43:32.881Z,99977.72
2022-09-26T12:44:57.716Z,99973.97
2022-09-26T12:46:51.654Z,99976.00
2022-09-26T12:48:08.138Z,99984.75
2022-09-26T12:49:21.702Z,99981.88
2022-09-26T12:50:43.723Z,99956.91
2022-09-26T12:51:49.080Z,99960.75
2022-09-26T12:52:56.557Z,99981.69
2022-09-26T12:54:01.552Z,99981.94
2022-09-26T12:55:47.378Z,99983.97
2022-09-26T12:57:29.787Z,99961.50
2022-09-26T12:58:31.479Z,99986.84
2022-09-26T12:59:53.949Z,99984.81
2022-09-26T13:01:23.242Z,99976.88
2022-09-26T13:02:58.687Z,99989.56
2022-09-26T13:04:21.896Z,99983.06
2022-09-26T13:05:30.527Z,99983.53
2022-09-26T13:07:07.564Z,99986.06
2022-09-26T13:08:09.116Z,99983.75
2022-09-26T13:09:16.902Z,99974.00
2022-09-26T13:10:25.109Z,99975.66
2022-09-26T13:11:35.825Z,99972.34
2022-09-26T13:12:46.640Z,99965.31
2022-09-26T13:14:27.451Z,99975.22
2022-09-26T13:15:47.314Z,99964.44
2022-09-26T13:17:10.233Z,99973.13
2022-09-26T13:18:26.316Z,99968.19
2022-09-26T13:19:51.578Z,99980.22
2022-09-26T13:20:59.291Z,99839.50
2022-09-26T13:22:21.260Z,99973.81
2022-09-26T13:23:34.019Z,99927.88
2022-09-26T13:24:51.444Z,99952.38
2022-09-26T13:26:05.939Z,99967.34
2022-09-26T13:27:16.225Z,99927.28
2022-09-26T13:28:33.854Z,99973.56
2022-09-26T13:29:38.583Z,99962.22
2022-09-26T13:30:46.526Z,99977.56
2022-09-26T13:32:11.214Z,99964.66
2022-09-26T13:33:31.443Z,99979.41
2022-09-26T13:34:41.208Z,99956.97
2022-09-26T13:35:47.165Z,99967.38
2022-09-26T13:36:50.102Z,99957.41
2022-09-26T13:38:04.016Z,99980.03
2022-09-26T13:39:17.667Z,99976.53
2022-09-26T13:40:46.238Z,99988.75
2022-09-26T13:42:09.098Z,99967.94
2022-09-26T13:43:26.208Z,99944.84
2022-09-26T13:44:59.887Z,99975.84
2022-09-26T13:46:16.286Z,99979.31
2022-09-26T13:47:41.143Z,99985.34
2022-09-26T13:49:22.744Z,99928.44
2022-09-26T13:50:49.345Z,99979.06
2022-09-26T13:52:10.239Z,99974.78
2022-09-26T13:53:28.964Z,99979.91
2022-09-26T13:54:54.060Z,99934.94
2022-09-26T13:56:34.067Z,99987.63
2022-09-26T13:57:35.847Z,99984.69
2022-09-26T13:58:40.553Z,99973.56
2022-09-26T13:59:54.632Z,99984.13
2022-09-26T14:01:26.035Z,99986.41
2022-09-26T14:02:29.830Z,99983.53
2022-09-26T14:03:37.719Z,99971.75
2022-09-26T14:04:40.120Z,99970.25
2022-09-26T14:05:41.851Z,99990.00
2022-09-26T14:07:29.618Z,99990.41
2022-09-26T14:08:53.685Z,99990.56
2022-09-26T14:10:20.782Z,99989.06
2022-09-26T14:11:30.698Z,99985.94
2022-09-26T14:12:52.997Z,99990.78
2022-09-26T14:14:18.307Z,99987.19
2022-09-26T14:15:47.405Z,99979.16
2022-09-26T14:16:54.724Z,99965.66
2022-09-26T14:18:12.911Z,99968.09